KIER

Natchitoches Regional Airport

Natchitoches, Louisiana, USA
METAR KIER 191055Z AUTO 00000KT 5SM BR CLR 23/23 A2994 RMK AO2 T02320230
Observed Flight Rules
Sep-19 @ 10:55 UTC (10 minutes ago) Marginal Visual Flight Rules
Visibility Clouds Conditions
5 miles
  • Clear skies
  • Mist
Temperatures Readings
Current 23°C / 73°F
Dewpoint 23°C / 73°F
Humidity 100%
Altimeter 29.94" Hg
Pressure 1014 hPa
Elevation 37
METAR KIER 191055Z AUTO 00000KT 5SM BR CLR 23/23 A2994 RMK AO2 T02320230
Observed Flight Rules
Sep-19 @ 10:55 UTC
(10 minutes ago)
MVFR
Clouds
  • Clear skies
Conditions
  • Mist
Temperature Dewpoint
23°C / 73°F 23°C / 73°F
Humidity Altimeter Pressure
100% 29.94" Hg 1014 hPa